Weather at Barraba Airport

Public forecast

Using degrees Celsius for public forecast. Weather courtesy of forecast.io.

Closest aviation weather report (METAR) to Barraba Airport

Closest report is Narrabri Airport, 40.2 nm (74.5 km) W. Retrieved 2020/09/22 13:00 UTC (27 minutes ago):

YNBR 221300Z AUTO 03004KT 9999 // NCD 14/05 Q1016

Closest aviation forecast (TAF) to Barraba Airport

Closest forecast is Tamworth Airport, 44.0 nm (81.4 km) SSE. Retrieved 2020/09/22 12:36 UTC (51 minutes ago):

TAF TAF YSTW 221131Z 2212/2306 VRB03KT CAVOK FM222100 30008KT CAVOK FM230000 28014KT CAVOK